Kezdőlap
METAR-TAF:

METAR-TAF

Repülőterek :

Reschen Pass, Olaszország

földrajzi szélesség: 46-50N, földrajzi hosszúság: 010-30E, magasság: 1800 m

Jelenlegi meteorológiai megfigyelések

A jelentés 29 perccel ezelõtt készült, 01:55 UTC
Észak-északkeleti szél 3 kt
Hőmérséklet 8°C
Páratartalom 71%
Légköri nyomás 1025 hPa
Látótávolság 10 km, vagy több
felhőtlen 1500 m magasságban, és nincs gomolyfelhõ

METAR: LIVE 230155Z 02003KT CAVOK 08/03 Q1025 RMK SKC VIS MIN 9999

Idő: 04:24 (02:24 UTC)


TAF: hiányzik

Meteorológiai megfigyelések és előrejelzések több, mint 4000 repülőtéren (METAR és TAF jelentéseket).

A térképen piros és sárga pontok jelzik az elérhető meteorológiai állomásokat.

Mozgassa az egeret a pont fölött, hogy megjelenjen az állomás neve.

Azután kattintson az időjárási megfigyelések és előrejelzések megtekintéséhez.

A térkép megváltoztatása: kattintson a fekete keresztel jelölt zöld gombra ráközelítéshez, a vonallal jelölt zöld gombra távolításhoz, vagy a zöld nyilakra a szomszédos térképek eléréséhez.


METAR-TAF: